Time;durP1;ratioP1;P1;durP2;ratioP2;P2;SDS_P1;SDS_P2;PMS_P1;PMS_P2;Temp;Humidity;BMP_temperature;BMP_pressure;BME280_temperature;BME280_humidity;BME280_pressure;Samples;Min_cycle;Max_cycle;Signal;HPM_P1;HPM_P2
2023/06/09 00:00:47;;;;;;;9.45;3.53;;;16.70;1.10;;;;;;4815341;29;36474;-79
2023/06/09 00:03:16;;;;;;;11.05;4.40;;;16.70;8.00;;;;;;4798074;29;38952;-79
2023/06/09 00:05:42;;;;;;;11.32;3.97;;;16.60;4.20;;;;;;4808926;29;38301;-78
2023/06/09 00:08:08;;;;;;;10.15;4.03;;;16.60;7.50;;;;;;4797029;29;38439;-79
2023/06/09 00:10:34;;;;;;;11.13;4.30;;;16.60;12.90;;;;;;4813801;29;35579;-78
2023/06/09 00:13:01;;;;;;;10.35;4.45;;;16.60;20.60;;;;;;4812367;29;39714;-79
2023/06/09 00:15:27;;;;;;;11.75;4.13;;;16.50;18.80;;;;;;4799839;29;38446;-80
2023/06/09 00:17:54;;;;;;;14.30;4.22;;;16.50;15.80;;;;;;4799502;29;37610;-81
2023/06/09 00:20:20;;;;;;;12.40;4.40;;;16.50;19.50;;;;;;4815007;29;37304;-80
2023/06/09 00:22:48;;;;;;;13.02;4.25;;;16.50;20.40;;;;;;4814402;29;38931;-78
2023/06/09 00:25:19;;;;;;;12.13;4.43;;;16.40;23.40;;;;;;4810521;29;39454;-80
2023/06/09 00:27:46;;;;;;;12.73;4.60;;;16.40;30.00;;;;;;4802770;29;37015;-78
2023/06/09 00:30:38;;;;;;;16.95;4.90;;;16.40;26.40;;;;;;4790430;29;36270;-82
2023/06/09 00:36:28;;;;;;;13.05;5.03;;;16.30;29.50;;;;;;4819960;29;39311;-79
2023/06/09 00:38:54;;;;;;;11.00;4.40;;;16.30;27.90;;;;;;4832621;29;37947;-77
2023/06/09 00:41:20;;;;;;;12.68;4.00;;;16.20;30.80;;;;;;4813619;29;35880;-78
2023/06/09 00:43:50;;;;;;;13.10;4.40;;;16.20;32.20;;;;;;4819281;29;37932;-78
2023/06/09 00:46:17;;;;;;;11.15;4.35;;;16.20;26.20;;;;;;4816433;29;37417;-78
2023/06/09 00:48:44;;;;;;;11.77;4.28;;;16.20;28.70;;;;;;4824678;29;37729;-79
2023/06/09 00:51:10;;;;;;;12.80;4.55;;;16.10;31.50;;;;;;4813995;29;36346;-78
2023/06/09 00:53:37;;;;;;;8.75;3.90;;;16.10;32.40;;;;;;4814488;29;39152;-78
2023/06/09 00:56:03;;;;;;;11.20;4.50;;;16.10;32.60;;;;;;4816942;29;38856;-77
2023/06/09 00:58:30;;;;;;;10.27;3.70;;;16.10;40.10;;;;;;4830259;29;39235;-78
2023/06/09 01:03:32;;;;;;;7.55;4.18;;;16.00;39.30;;;;;;4890588;23;20062;-79
2023/06/09 01:06:23;;;;;;;15.13;4.03;;;16.00;40.60;;;;;;4799856;29;37637;-79
2023/06/09 01:08:56;;;;;;;12.02;5.10;;;15.90;39.00;;;;;;4838430;29;48607;-80
2023/06/09 01:11:44;;;;;;;11.05;3.65;;;15.90;40.20;;;;;;4817745;29;37737;-78
2023/06/09 01:14:34;;;;;;;16.77;4.75;;;15.80;44.40;;;;;;4829098;29;37882;-83
2023/06/09 01:17:08;;;;;;;9.43;3.75;;;15.80;37.40;;;;;;4818341;29;37228;-79
2023/06/09 01:19:43;;;;;;;11.45;4.28;;;15.70;38.10;;;;;;4837528;29;48807;-80
2023/06/09 01:22:29;;;;;;;12.55;4.40;;;15.70;42.90;;;;;;4827346;29;37039;-83
2023/06/09 01:25:34;;;;;;;12.48;4.18;;;15.70;38.70;;;;;;4825544;29;37796;-80
2023/06/09 01:28:16;;;;;;;10.57;3.97;;;15.70;39.10;;;;;;4820179;29;47099;-80
2023/06/09 01:30:46;;;;;;;11.27;4.15;;;15.70;45.00;;;;;;4817459;29;47157;-81
2023/06/09 01:33:19;;;;;;;14.68;4.25;;;15.60;43.10;;;;;;4813871;29;36878;-80
2023/06/09 01:35:46;;;;;;;15.32;4.90;;;15.60;44.60;;;;;;4830187;29;38888;-80
2023/06/09 01:38:13;;;;;;;13.43;5.13;;;15.60;46.90;;;;;;4831257;29;39270;-78
2023/06/09 01:40:40;;;;;;;15.38;4.60;;;15.60;45.00;;;;;;4835566;29;37856;-80
2023/06/09 01:43:07;;;;;;;12.32;4.38;;;15.60;49.40;;;;;;4833390;29;37033;-79
2023/06/09 01:45:33;;;;;;;12.77;4.53;;;15.50;51.10;;;;;;4834207;29;38843;-78
2023/06/09 01:48:09;;;;;;;11.80;5.45;;;15.50;53.80;;;;;;4843440;29;38085;-83
2023/06/09 01:51:06;;;;;;;10.00;4.43;;;15.50;51.10;;;;;;4839822;29;47957;-80
2023/06/09 01:53:37;;;;;;;12.32;4.43;;;15.50;55.60;;;;;;4818524;29;47480;-79
2023/06/09 01:56:08;;;;;;;16.00;4.72;;;15.40;58.70;;;;;;4814014;29;37908;-80
2023/06/09 01:58:41;;;;;;;13.45;4.18;;;15.40;60.50;;;;;;4815812;29;37155;-80
2023/06/09 02:01:08;;;;;;;12.70;5.38;;;15.40;62.90;;;;;;4833822;29;37754;-80
2023/06/09 02:03:39;;;;;;;14.25;4.55;;;15.30;64.20;;;;;;4832748;29;37103;-81
2023/06/09 02:06:06;;;;;;;13.60;4.38;;;15.40;68.20;;;;;;4816263;29;37736;-79
2023/06/09 02:08:32;;;;;;;14.35;4.50;;;15.30;67.60;;;;;;4830820;29;39368;-79
2023/06/09 02:10:59;;;;;;;15.48;4.60;;;15.30;75.10;;;;;;4835515;29;36723;-81
2023/06/09 02:13:25;;;;;;;17.27;5.00;;;15.20;71.60;;;;;;4836083;29;36042;-79
2023/06/09 02:15:51;;;;;;;10.73;4.50;;;15.20;74.60;;;;;;4821853;29;37572;-81
2023/06/09 02:18:21;;;;;;;14.07;4.85;;;15.10;75.30;;;;;;4838860;29;39380;-79
2023/06/09 02:20:48;;;;;;;13.20;4.68;;;15.10;79.50;;;;;;4835100;29;37851;-80
2023/06/09 02:23:15;;;;;;;13.38;4.45;;;15.10;81.80;;;;;;4838546;29;37092;-80
2023/06/09 02:25:41;;;;;;;15.52;5.13;;;15.00;85.20;;;;;;4826779;29;39942;-80
2023/06/09 02:28:08;;;;;;;16.63;4.97;;;15.00;86.70;;;;;;4814181;29;37238;-79
2023/06/09 02:30:34;;;;;;;12.27;4.25;;;15.00;85.40;;;;;;4822039;29;37052;-79
2023/06/09 02:33:01;;;;;;;15.45;4.70;;;15.00;87.40;;;;;;4837352;29;36237;-80
2023/06/09 02:35:29;;;;;;;17.10;5.65;;;15.00;88.20;;;;;;4832561;29;48489;-82
2023/06/09 02:37:57;;;;;;;13.65;4.63;;;15.00;89.50;;;;;;4835118;29;39401;-78
2023/06/09 02:40:27;;;;;;;16.20;4.72;;;14.90;88.80;;;;;;4834073;29;37989;-81
2023/06/09 02:42:54;;;;;;;9.93;4.35;;;14.90;91.10;;;;;;4818792;29;36010;-79
2023/06/09 02:45:20;;;;;;;15.98;4.82;;;14.90;91.00;;;;;;4835636;29;38783;-80
2023/06/09 02:47:46;;;;;;;12.32;4.80;;;14.90;90.90;;;;;;4818096;29;38661;-79
2023/06/09 02:50:12;;;;;;;12.27;4.63;;;14.90;92.20;;;;;;4818571;29;39570;-80
2023/06/09 02:52:39;;;;;;;11.20;4.35;;;14.90;92.10;;;;;;4836430;29;36993;-79
2023/06/09 02:55:07;;;;;;;14.00;4.20;;;14.90;91.20;;;;;;4820129;29;37717;-80
2023/06/09 02:57:33;;;;;;;10.88;4.88;;;14.80;90.90;;;;;;4820319;29;37579;-79
2023/06/09 02:59:59;;;;;;;15.05;5.25;;;14.80;91.30;;;;;;4836390;29;38215;-79
2023/06/09 03:02:28;;;;;;;14.73;5.05;;;14.80;92.00;;;;;;4834668;29;37983;-78
2023/06/09 03:04:55;;;;;;;11.90;5.25;;;14.80;91.60;;;;;;4831262;29;39643;-79
2023/06/09 03:07:21;;;;;;;14.77;5.32;;;14.80;90.20;;;;;;4837484;29;39485;-79
2023/06/09 03:09:47;;;;;;;14.75;5.25;;;14.70;91.00;;;;;;4820642;29;38083;-79
2023/06/09 03:12:13;;;;;;;14.65;5.05;;;14.70;90.60;;;;;;4839353;29;36607;-81
2023/06/09 03:14:39;;;;;;;14.48;5.07;;;14.70;91.10;;;;;;4822277;29;39506;-79
2023/06/09 03:17:06;;;;;;;15.50;6.10;;;14.70;89.50;;;;;;4834759;29;38652;-78
2023/06/09 03:19:32;;;;;;;9.75;4.40;;;14.70;87.70;;;;;;4836009;29;37922;-78
2023/06/09 03:21:58;;;;;;;13.23;5.57;;;14.70;91.90;;;;;;4837178;29;37333;-78
2023/06/09 03:24:25;;;;;;;13.48;5.05;;;14.70;91.00;;;;;;4835843;29;37612;-78
2023/06/09 03:26:55;;;;;;;14.50;4.88;;;14.70;90.60;;;;;;4834791;29;38713;-79
2023/06/09 03:29:21;;;;;;;11.93;5.05;;;14.70;91.40;;;;;;4834545;29;38201;-78
2023/06/09 03:31:48;;;;;;;11.77;4.85;;;14.70;91.30;;;;;;4835279;29;37574;-78
2023/06/09 03:34:14;;;;;;;13.48;5.03;;;14.70;95.80;;;;;;4835006;29;38665;-78
2023/06/09 03:36:41;;;;;;;12.77;4.80;;;14.70;96.30;;;;;;4818398;29;37348;-78
2023/06/09 03:39:07;;;;;;;10.43;5.18;;;14.70;96.50;;;;;;4828931;29;37945;-79
2023/06/09 03:41:34;;;;;;;11.80;4.80;;;14.70;95.40;;;;;;4818728;29;36166;-78
2023/06/09 03:44:00;;;;;;;17.08;5.20;;;14.60;92.70;;;;;;4820681;29;37714;-78
2023/06/09 03:46:26;;;;;;;13.48;4.90;;;14.60;91.10;;;;;;4836090;29;38547;-78
2023/06/09 03:48:52;;;;;;;11.82;5.10;;;14.60;90.10;;;;;;4816706;29;37035;-77
2023/06/09 03:51:20;;;;;;;14.55;5.63;;;14.60;90.20;;;;;;4819059;29;37105;-78
2023/06/09 03:53:46;;;;;;;15.85;4.55;;;14.50;88.90;;;;;;4832226;29;37516;-77
2023/06/09 03:56:13;;;;;;;13.93;5.20;;;14.60;91.40;;;;;;4835826;29;38220;-78
2023/06/09 03:58:39;;;;;;;11.05;4.47;;;14.50;90.70;;;;;;4835051;29;38042;-78
2023/06/09 04:01:10;;;;;;;13.10;5.43;;;14.60;92.80;;;;;;4829821;29;37190;-79
2023/06/09 04:03:37;;;;;;;10.45;4.07;;;14.60;91.00;;;;;;4832140;29;38534;-78
2023/06/09 04:06:03;;;;;;;14.07;5.90;;;14.50;83.80;;;;;;4826449;29;37225;-79
2023/06/09 04:08:30;;;;;;;13.77;4.57;;;14.50;84.60;;;;;;4830817;29;38614;-78
2023/06/09 04:10:56;;;;;;;11.88;4.60;;;14.50;85.80;;;;;;4829051;29;35832;-78
2023/06/09 04:13:22;;;;;;;10.75;5.10;;;14.50;81.70;;;;;;4827115;29;38173;-77
2023/06/09 04:15:48;;;;;;;8.30;4.47;;;14.50;83.20;;;;;;4818208;29;37212;-77
2023/06/09 04:18:15;;;;;;;13.00;5.25;;;14.50;83.60;;;;;;4817674;29;36725;-78
2023/06/09 04:20:42;;;;;;;13.00;5.22;;;14.50;76.30;;;;;;4833932;29;36913;-77
2023/06/09 04:23:09;;;;;;;8.43;4.18;;;14.50;75.50;;;;;;4813216;29;37756;-78
2023/06/09 04:25:35;;;;;;;14.10;5.32;;;14.50;75.70;;;;;;4826974;29;39167;-78
2023/06/09 04:28:03;;;;;;;10.82;5.13;;;14.50;79.20;;;;;;4814613;29;38101;-80
2023/06/09 04:30:30;;;;;;;14.32;5.30;;;14.50;74.90;;;;;;4834664;29;35961;-77
2023/06/09 04:33:04;;;;;;;12.93;4.50;;;14.60;70.90;;;;;;4816147;29;37796;-78
2023/06/09 04:35:31;;;;;;;12.93;4.93;;;14.50;64.80;;;;;;4829105;29;48595;-78
2023/06/09 04:37:59;;;;;;;12.27;5.05;;;14.60;68.70;;;;;;4814477;29;36879;-77
2023/06/09 04:40:27;;;;;;;10.27;5.20;;;14.60;66.20;;;;;;4823361;29;36183;-78
2023/06/09 04:42:57;;;;;;;11.55;4.63;;;14.60;59.50;;;;;;4818392;29;41300;-77
2023/06/09 04:45:27;;;;;;;16.48;5.32;;;14.70;56.70;;;;;;4817979;29;38523;-80
2023/06/09 04:47:55;;;;;;;15.25;5.00;;;14.60;45.60;;;;;;4825168;29;37808;-79
2023/06/09 04:50:21;;;;;;;13.27;5.15;;;14.70;53.10;;;;;;4831779;29;37279;-78
2023/06/09 04:52:47;;;;;;;14.02;4.68;;;14.70;58.40;;;;;;4832029;29;39197;-79
2023/06/09 04:55:13;;;;;;;10.55;4.13;;;14.70;47.90;;;;;;4816980;29;37483;-78
2023/06/09 04:57:40;;;;;;;11.75;4.50;;;14.80;37.00;;;;;;4835158;29;39336;-80
2023/06/09 05:00:18;;;;;;;14.98;5.70;;;14.90;45.70;;;;;;4833021;29;37756;-80
2023/06/09 05:02:47;;;;;;;11.00;4.72;;;15.00;24.60;;;;;;4814868;29;37684;-78
2023/06/09 05:05:14;;;;;;;14.77;4.75;;;15.30;12.30;;;;;;4816718;29;37516;-85
2023/06/09 05:07:40;;;;;;;14.85;4.95;;;15.50;8.80;;;;;;4827710;29;37954;-79
2023/06/09 05:10:08;;;;;;;9.00;4.28;;;15.80;1.00;;;;;;4824777;29;36335;-82
2023/06/09 05:12:36;;;;;;;12.40;4.78;;;15.90;13.50;;;;;;4832149;29;40015;-83
2023/06/09 05:15:07;;;;;;;11.40;4.28;;;16.00;1.00;;;;;;4822709;29;38248;-81
2023/06/09 05:17:34;;;;;;;14.53;4.53;;;15.90;1.00;;;;;;4788793;29;49087;-81
2023/06/09 05:20:01;;;;;;;13.60;4.75;;;16.10;1.00;;;;;;4823952;29;36951;-79
2023/06/09 05:22:27;;;;;;;42.13;9.07;;;16.30;1.00;;;;;;4828370;29;38758;-81
2023/06/09 05:24:54;;;;;;;11.98;5.13;;;16.40;1.00;;;;;;4828573;29;38454;-80
2023/06/09 05:27:20;;;;;;;12.73;4.88;;;16.50;1.00;;;;;;4809606;29;36961;-80
2023/06/09 05:29:46;;;;;;;14.80;5.18;;;16.60;1.00;;;;;;4816360;29;37358;-81
2023/06/09 05:32:12;;;;;;;11.32;5.07;;;16.60;1.00;;;;;;4807224;29;40812;-81
2023/06/09 05:34:39;;;;;;;13.27;5.07;;;16.60;1.00;;;;;;4822661;29;38557;-80
2023/06/09 05:37:05;;;;;;;13.88;5.20;;;16.70;1.00;;;;;;4828687;29;38429;-79
2023/06/09 05:39:31;;;;;;;11.25;5.07;;;16.70;1.00;;;;;;4814754;29;36122;-80
2023/06/09 05:41:57;;;;;;;15.77;5.43;;;16.70;1.00;;;;;;4816147;29;37459;-80
2023/06/09 05:44:23;;;;;;;10.05;4.97;;;16.50;1.00;;;;;;4814357;29;38140;-78
2023/06/09 05:46:49;;;;;;;11.18;5.57;;;16.60;1.00;;;;;;4813790;29;38204;-77
2023/06/09 05:49:16;;;;;;;10.20;5.03;;;16.70;1.00;;;;;;4812398;29;36806;-76
2023/06/09 05:51:42;;;;;;;14.95;4.90;;;16.80;1.00;;;;;;4800839;29;38737;-77
2023/06/09 05:54:09;;;;;;;12.10;5.57;;;17.00;1.00;;;;;;4821281;29;39156;-74
2023/06/09 05:56:37;;;;;;;11.02;4.75;;;17.30;1.00;;;;;;4828784;29;36827;-74
2023/06/09 05:59:04;;;;;;;11.32;4.68;;;17.30;1.00;;;;;;4816851;29;36506;-76
2023/06/09 06:01:30;;;;;;;14.75;5.75;;;17.30;1.00;;;;;;4803974;29;37669;-76
2023/06/09 06:03:57;;;;;;;13.45;5.68;;;17.30;1.00;;;;;;4789569;29;37098;-76
2023/06/09 06:06:23;;;;;;;13.68;5.50;;;17.50;1.00;;;;;;4800806;29;37582;-76
2023/06/09 06:08:49;;;;;;;13.18;5.65;;;17.50;1.00;;;;;;4785608;29;36691;-77
2023/06/09 06:11:15;;;;;;;11.60;5.57;;;17.50;1.00;;;;;;4808596;29;37628;-74
2023/06/09 06:13:41;;;;;;;12.02;5.88;;;17.70;1.00;;;;;;4791418;29;38219;-75
2023/06/09 06:16:07;;;;;;;16.77;5.38;;;17.80;1.00;;;;;;4777783;29;37076;-74
2023/06/09 06:18:33;;;;;;;14.68;6.03;;;18.00;1.00;;;;;;4810292;29;36914;-79
2023/06/09 06:20:59;;;;;;;13.50;6.15;;;18.00;1.00;;;;;;4801686;29;39285;-79
2023/06/09 06:23:25;;;;;;;10.63;5.07;;;18.10;1.00;;;;;;4797994;29;39215;-79
2023/06/09 06:25:52;;;;;;;14.68;6.20;;;18.10;1.00;;;;;;4788860;29;37752;-77
2023/06/09 06:28:19;;;;;;;11.35;5.72;;;18.00;1.00;;;;;;4783670;29;36554;-77
2023/06/09 06:30:45;;;;;;;14.50;5.97;;;18.10;1.00;;;;;;4792208;29;39931;-76
2023/06/09 06:33:11;;;;;;;15.80;6.03;;;18.20;1.00;;;;;;4795586;29;38440;-77
2023/06/09 06:35:37;;;;;;;14.65;5.75;;;18.30;1.00;;;;;;4783637;29;37150;-76
2023/06/09 06:38:03;;;;;;;15.20;6.45;;;18.60;1.00;;;;;;4783867;29;36248;-78
2023/06/09 06:40:30;;;;;;;14.55;6.25;;;18.80;1.00;;;;;;4803721;29;37657;-79
2023/06/09 06:42:56;;;;;;;13.35;5.82;;;18.90;1.00;;;;;;4795560;29;38367;-79
2023/06/09 06:45:22;;;;;;;14.35;6.22;;;19.10;1.00;;;;;;4801166;29;37837;-79
2023/06/09 06:47:49;;;;;;;12.10;5.40;;;19.20;1.00;;;;;;4801550;29;36350;-79
2023/06/09 06:50:15;;;;;;;12.93;6.15;;;19.30;1.00;;;;;;4800589;29;39543;-83
2023/06/09 06:52:42;;;;;;;12.75;6.70;;;19.30;1.00;;;;;;4799107;29;38287;-81
2023/06/09 06:55:08;;;;;;;12.85;5.80;;;19.50;1.00;;;;;;4786816;29;38248;-82
2023/06/09 06:57:35;;;;;;;13.88;5.80;;;19.70;1.00;;;;;;4782176;29;36299;-86
2023/06/09 07:00:10;;;;;;;12.07;5.40;;;19.90;1.00;;;;;;4807796;29;37786;-80
2023/06/09 07:02:36;;;;;;;13.43;5.57;;;20.40;99.90;;;;;;4800864;29;38585;-79
2023/06/09 07:05:03;;;;;;;12.18;5.82;;;20.70;99.90;;;;;;4778567;29;38617;-79
2023/06/09 07:07:29;;;;;;;10.45;5.85;;;20.90;1.00;;;;;;4788305;29;36097;-78
2023/06/09 07:09:55;;;;;;;11.82;5.78;;;20.60;1.00;;;;;;4799769;29;37819;-79
2023/06/09 07:12:21;;;;;;;12.38;6.22;;;20.60;99.90;;;;;;4789912;29;37242;-88
2023/06/09 07:14:48;;;;;;;12.23;6.75;;;20.80;1.00;;;;;;4789938;29;38633;-81
2023/06/09 07:17:14;;;;;;;12.68;6.30;;;20.90;1.00;;;;;;4780820;29;37392;-78
2023/06/09 07:19:40;;;;;;;13.57;6.35;;;20.90;1.00;;;;;;4785068;29;37446;-78
2023/06/09 07:22:06;;;;;;;10.48;5.65;;;20.90;99.90;;;;;;4803569;29;38196;-78
2023/06/09 07:24:32;;;;;;;12.63;5.72;;;21.00;99.90;;;;;;4786576;29;38029;-77
2023/06/09 07:26:58;;;;;;;11.90;6.85;;;21.20;39.30;;;;;;4786438;29;36046;-79
2023/06/09 07:29:25;;;;;;;12.60;5.93;;;21.30;1.00;;;;;;4782572;29;38765;-79
2023/06/09 07:31:52;;;;;;;16.38;6.82;;;21.50;99.90;;;;;;4785128;29;37773;-79
2023/06/09 07:34:18;;;;;;;15.63;7.45;;;21.50;1.00;;;;;;4785763;29;37924;-78
2023/06/09 07:36:50;;;;;;;13.60;6.90;;;21.60;99.90;;;;;;4801362;29;37344;-78
2023/06/09 07:39:17;;;;;;;12.27;6.28;;;21.70;1.00;;;;;;4798947;29;36457;-78
2023/06/09 07:41:43;;;;;;;11.13;6.43;;;22.00;84.10;;;;;;4789549;29;38169;-78
2023/06/09 07:44:09;;;;;;;14.00;6.38;;;22.10;1.00;;;;;;4803110;29;39128;-77
2023/06/09 07:46:37;;;;;;;11.95;6.53;;;22.10;99.90;;;;;;4789983;29;36084;-81
2023/06/09 07:49:03;;;;;;;19.63;7.65;;;22.40;1.00;;;;;;4789080;29;38842;-81
2023/06/09 07:51:30;;;;;;;11.20;7.13;;;22.40;99.90;;;;;;4800371;29;37742;-80
2023/06/09 07:53:56;;;;;;;14.02;7.18;;;22.30;1.00;;;;;;4791322;29;37051;-79
2023/06/09 07:56:22;;;;;;;10.68;6.20;;;22.40;15.50;;;;;;4784616;29;37703;-81
2023/06/09 07:58:49;;;;;;;14.27;6.88;;;22.60;1.00;;;;;;4802390;29;38802;-80
2023/06/09 08:01:16;;;;;;;13.07;5.78;;;22.60;68.00;;;;;;4803414;29;38370;-79
2023/06/09 08:03:42;;;;;;;14.80;6.72;;;22.40;1.00;;;;;;4790445;29;36742;-81
2023/06/09 08:06:09;;;;;;;21.70;7.55;;;22.60;99.90;;;;;;4782999;29;39046;-81
2023/06/09 08:08:37;;;;;;;9.82;6.07;;;22.90;1.00;;;;;;4780241;29;38865;-82
2023/06/09 08:11:03;;;;;;;13.65;6.20;;;22.80;99.90;;;;;;4781716;29;38589;-85
2023/06/09 08:13:30;;;;;;;14.05;7.40;;;22.90;1.00;;;;;;4787857;29;37558;-83
2023/06/09 08:15:56;;;;;;;15.98;7.35;;;23.20;99.90;;;;;;4771996;29;39233;-80
2023/06/09 08:18:22;;;;;;;14.90;7.63;;;23.20;99.90;;;;;;4775796;29;38757;-82
2023/06/09 08:20:48;;;;;;;16.45;7.07;;;23.20;99.90;;;;;;4776638;29;37645;-81
2023/06/09 08:23:16;;;;;;;11.23;6.50;;;23.40;1.00;;;;;;4783107;29;37325;-85
2023/06/09 08:25:42;;;;;;;15.63;6.55;;;23.70;1.00;;;;;;4772041;29;36342;-84
2023/06/09 08:28:08;;;;;;;14.55;6.60;;;24.10;59.60;;;;;;4798938;29;37712;-84
2023/06/09 08:30:34;;;;;;;10.23;6.10;;;24.30;1.00;;;;;;4784672;29;37984;-86
2023/06/09 08:33:01;;;;;;;9.10;6.35;;;24.20;99.90;;;;;;4788738;29;38086;-84
2023/06/09 08:35:31;;;;;;;18.50;7.20;;;24.50;1.00;;;;;;4798965;29;47716;-86
2023/06/09 08:37:58;;;;;;;27.63;7.53;;;24.70;99.90;;;;;;4788323;29;38279;-87
2023/06/09 08:40:24;;;;;;;11.73;6.82;;;24.90;1.00;;;;;;4811870;29;38890;-88
2023/06/09 08:42:55;;;;;;;18.00;8.05;;;25.00;99.90;;;;;;4791189;29;37437;-89
2023/06/09 08:45:25;;;;;;;11.45;7.38;;;25.10;99.90;;;;;;4781378;29;36808;-90
2023/06/09 08:47:59;;;;;;;15.52;6.65;;;24.80;99.90;;;;;;4791466;29;37746;-89
2023/06/09 08:50:28;;;;;;;13.48;7.13;;;24.90;99.90;;;;;;4790192;29;37534;-88
2023/06/09 08:52:56;;;;;;;12.90;7.05;;;25.10;99.90;;;;;;4804968;29;38964;-87
2023/06/09 08:55:22;;;;;;;12.57;7.15;;;25.00;99.90;;;;;;4801565;29;37424;-83
2023/06/09 08:57:51;;;;;;;12.25;6.50;;;24.90;1.00;;;;;;4789341;29;37943;-86
2023/06/09 09:00:18;;;;;;;14.05;7.30;;;24.70;1.00;;;;;;4802664;29;38111;-82
2023/06/09 09:02:44;;;;;;;10.57;7.18;;;24.40;99.90;;;;;;4775188;29;39189;-81
2023/06/09 09:05:10;;;;;;;10.40;7.05;;;24.70;99.90;;;;;;4782358;29;36488;-83
2023/06/09 09:07:36;;;;;;;10.88;6.63;;;25.20;99.90;;;;;;4787907;29;39541;-88
2023/06/09 09:10:03;;;;;;;16.15;6.32;;;25.70;99.90;;;;;;4783387;29;38217;-90
2023/06/09 09:12:45;;;;;;;12.60;7.20;;;26.00;33.00;;;;;;4800818;29;37356;-86
2023/06/09 09:15:11;;;;;;;12.52;7.22;;;25.90;1.00;;;;;;4801002;29;37164;-89
2023/06/09 09:17:40;;;;;;;11.55;6.25;;;25.60;1.00;;;;;;4809705;29;37809;-89
2023/06/09 09:20:10;;;;;;;12.23;6.88;;;25.60;27.10;;;;;;4788463;29;37440;-86
2023/06/09 09:22:50;;;;;;;9.52;5.95;;;25.60;1.00;;;;;;4781090;29;47460;-88
2023/06/09 09:25:29;;;;;;;11.23;6.60;;;25.90;99.90;;;;;;4807182;29;37099;-91
2023/06/09 09:28:04;;;;;;;11.00;6.10;;;26.40;1.00;;;;;;4783485;29;37877;-81
2023/06/09 09:30:40;;;;;;;8.35;5.40;;;26.50;1.00;;;;;;4791310;29;48165;-80
2023/06/09 09:33:20;;;;;;;12.85;7.38;;;26.90;1.00;;;;;;4796603;29;37154;-82
2023/06/09 09:35:49;;;;;;;12.82;7.22;;;26.70;1.00;;;;;;4798590;29;37362;-80
2023/06/09 09:38:19;;;;;;;15.60;6.70;;;26.30;1.00;;;;;;4781536;29;38245;-81
2023/06/09 09:40:48;;;;;;;11.93;6.07;;;26.60;1.00;;;;;;4789733;29;37531;-80
2023/06/09 09:43:15;;;;;;;12.45;6.28;;;27.00;1.00;;;;;;4781392;29;36804;-81
2023/06/09 09:45:47;;;;;;;13.77;6.22;;;27.30;1.00;;;;;;4795361;29;37388;-79
2023/06/09 09:48:14;;;;;;;12.25;7.10;;;27.60;1.00;;;;;;4781462;29;37891;-79
2023/06/09 09:50:43;;;;;;;9.82;6.18;;;27.80;1.00;;;;;;4781077;29;37344;-80
2023/06/09 09:53:10;;;;;;;9.43;5.57;;;27.90;1.00;;;;;;4781904;29;38271;-82
2023/06/09 09:55:43;;;;;;;7.97;5.63;;;28.30;1.00;;;;;;4781364;29;37154;-79
2023/06/09 09:58:10;;;;;;;9.77;6.20;;;28.60;1.00;;;;;;4794428;29;39391;-80
2023/06/09 10:00:38;;;;;;;9.38;6.20;;;28.50;1.00;;;;;;4791887;29;37284;-80
2023/06/09 10:03:17;;;;;;;8.25;5.95;;;28.10;1.00;;;;;;4776175;29;38016;-83
2023/06/09 10:05:48;;;;;;;11.95;7.80;;;27.60;1.00;;;;;;4783482;29;35973;-84
2023/06/09 10:08:26;;;;;;;14.38;6.90;;;28.00;1.00;;;;;;4791028;29;39653;-85
2023/06/09 10:10:56;;;;;;;11.23;6.63;;;28.20;1.00;;;;;;4787026;29;37166;-83
2023/06/09 10:13:26;;;;;;;9.70;6.25;;;28.20;1.00;;;;;;4798812;29;38245;-85
2023/06/09 10:15:53;;;;;;;10.80;5.60;;;28.30;1.00;;;;;;4783264;29;37204;-85
2023/06/09 10:18:20;;;;;;;12.70;6.53;;;28.30;1.00;;;;;;4777291;29;37701;-86
2023/06/09 10:20:50;;;;;;;18.80;6.40;;;28.40;1.00;;;;;;4781039;29;40058;-84
2023/06/09 10:23:18;;;;;;;16.08;7.00;;;28.90;1.00;;;;;;4778452;29;36696;-83
2023/06/09 10:25:51;;;;;;;11.68;6.88;;;28.80;1.00;;;;;;4777647;29;36165;-81
2023/06/09 10:28:19;;;;;;;10.45;8.13;;;28.70;99.90;;;;;;4783615;29;38490;-81
2023/06/09 10:30:48;;;;;;;9.82;6.95;;;28.20;99.90;;;;;;4774953;29;37639;-81
2023/06/09 10:33:28;;;;;;;15.43;7.22;;;28.10;99.90;;;;;;4791811;29;38214;-83
2023/06/09 10:36:03;;;;;;;7.93;6.75;;;28.40;1.00;;;;;;4788724;29;37068;-84
2023/06/09 10:38:42;;;;;;;10.77;6.47;;;28.40;1.00;;;;;;4778147;29;47217;-84
2023/06/09 10:41:18;;;;;;;12.82;6.05;;;28.70;99.90;;;;;;4796914;29;38110;-85
2023/06/09 10:44:19;;;;;;;9.57;6.15;;;28.70;1.00;;;;;;4789904;29;37972;-83
2023/06/09 10:46:47;;;;;;;11.60;6.30;;;29.00;99.90;;;;;;4796258;29;48515;-82
2023/06/09 10:49:25;;;;;;;12.10;6.93;;;28.70;99.90;;;;;;4783139;29;40133;-81
2023/06/09 10:51:52;;;;;;;9.25;6.63;;;28.70;99.90;;;;;;4781067;29;35943;-83
2023/06/09 10:54:20;;;;;;;9.23;6.72;;;28.80;1.00;;;;;;4782144;29;37277;-82
2023/06/09 10:56:57;;;;;;;13.25;6.35;;;28.90;99.90;;;;;;4776736;29;35994;-83
2023/06/09 10:59:23;;;;;;;10.57;6.80;;;29.20;99.90;;;;;;4782673;29;37450;-84
2023/06/09 11:02:05;;;;;;;11.38;6.03;;;29.00;99.90;;;;;;4788590;29;37339;-83
2023/06/09 11:07:24;;;;;;;6.45;5.25;;;29.10;99.90;;;;;;4787236;29;35416;-82
2023/06/09 11:09:50;;;;;;;12.27;7.13;;;29.00;99.90;;;;;;4774997;29;37883;-82
2023/06/09 11:12:36;;;;;;;11.73;6.80;;;29.10;99.90;;;;;;4772776;29;36213;-83
2023/06/09 11:15:03;;;;;;;7.97;5.85;;;29.10;99.90;;;;;;4780841;29;38217;-80
2023/06/09 11:17:34;;;;;;;11.73;5.78;;;29.30;99.90;;;;;;4773230;29;36268;-80
2023/06/09 11:20:06;;;;;;;5.72;5.00;;;29.40;99.90;;;;;;4784065;29;38154;-84
2023/06/09 11:22:33;;;;;;;7.93;5.90;;;29.20;99.90;;;;;;4789603;29;48374;-85
2023/06/09 11:24:59;;;;;;;8.10;5.07;;;29.50;99.90;;;;;;4777921;29;39892;-82
2023/06/09 11:27:26;;;;;;;8.02;4.80;;;29.60;99.90;;;;;;4796958;29;35868;-83
2023/06/09 11:30:14;;;;;;;8.90;6.07;;;29.70;99.90;;;;;;4770733;29;38132;-83
2023/06/09 11:32:53;;;;;;;10.25;5.07;;;30.00;99.90;;;;;;4778051;29;47254;-82
2023/06/09 11:35:28;;;;;;;11.15;5.07;;;29.90;99.90;;;;;;4799319;29;40653;-82
2023/06/09 11:38:02;;;;;;;8.90;4.90;;;29.90;99.90;;;;;;4794274;29;37761;-87
2023/06/09 11:40:30;;;;;;;7.18;4.95;;;29.60;99.90;;;;;;4794642;29;48433;-84
2023/06/09 11:42:57;;;;;;;10.02;5.63;;;29.90;99.90;;;;;;4783039;29;37624;-80
2023/06/09 11:45:29;;;;;;;9.20;5.50;;;30.00;99.90;;;;;;4794258;29;37449;-80
2023/06/09 11:47:59;;;;;;;9.55;6.13;;;29.60;99.90;;;;;;4775132;29;36335;-81
2023/06/09 11:50:35;;;;;;;11.63;5.37;;;29.50;99.90;;;;;;4777957;29;42476;-81
2023/06/09 11:53:03;;;;;;;6.80;4.47;;;29.40;99.90;;;;;;4776486;29;37735;-81
2023/06/09 11:55:29;;;;;;;8.27;5.00;;;29.20;99.90;;;;;;4771810;29;47334;-81
2023/06/09 11:57:55;;;;;;;8.90;4.60;;;29.40;99.90;;;;;;4775845;29;37181;-80
2023/06/09 12:00:26;;;;;;;9.57;5.47;;;29.60;99.90;;;;;;4773817;29;37244;-80
2023/06/09 12:02:53;;;;;;;12.65;5.22;;;29.90;99.90;;;;;;4769459;29;38080;-82
2023/06/09 12:05:21;;;;;;;12.00;5.35;;;29.70;99.90;;;;;;4777720;29;38487;-79
2023/06/09 12:07:47;;;;;;;10.50;4.85;;;29.80;99.90;;;;;;4772492;29;36191;-81
2023/06/09 12:10:17;;;;;;;8.18;4.68;;;29.80;99.90;;;;;;4776551;29;38004;-80
2023/06/09 12:12:47;;;;;;;7.95;5.15;;;30.10;99.90;;;;;;4777951;29;37515;-80
2023/06/09 12:15:15;;;;;;;8.40;5.70;;;30.40;99.90;;;;;;4771153;29;37870;-81
2023/06/09 12:17:43;;;;;;;7.60;4.25;;;30.00;99.90;;;;;;4783921;29;37933;-81
2023/06/09 12:20:29;;;;;;;12.85;5.00;;;29.90;99.90;;;;;;4773934;29;38409;-81
2023/06/09 12:23:02;;;;;;;10.25;5.00;;;29.80;99.90;;;;;;4795422;29;38155;-81
2023/06/09 12:25:30;;;;;;;5.28;4.70;;;30.00;99.90;;;;;;4776576;29;49622;-80
2023/06/09 12:28:16;;;;;;;7.60;4.75;;;30.10;99.90;;;;;;4773912;29;36050;-80
2023/06/09 12:30:47;;;;;;;6.03;4.47;;;30.30;99.90;;;;;;4797629;29;47016;-84
2023/06/09 12:33:16;;;;;;;6.55;4.43;;;30.20;99.90;;;;;;4795091;29;38245;-83
2023/06/09 12:35:45;;;;;;;5.22;4.03;;;29.90;99.90;;;;;;4786950;29;39010;-83
2023/06/09 12:38:14;;;;;;;7.28;4.90;;;29.70;99.90;;;;;;4785814;29;36966;-83
2023/06/09 12:40:52;;;;;;;4.65;3.95;;;29.80;99.90;;;;;;4777944;29;39624;-84
2023/06/09 12:43:23;;;;;;;6.68;4.53;;;29.70;99.90;;;;;;4791763;29;38526;-83
2023/06/09 12:45:54;;;;;;;10.20;4.32;;;29.90;99.90;;;;;;4779743;29;37091;-83
2023/06/09 12:48:20;;;;;;;7.57;4.30;;;30.20;99.90;;;;;;4776622;29;39228;-84
2023/06/09 12:50:46;;;;;;;6.55;4.20;;;29.90;99.90;;;;;;4777592;29;38569;-82
2023/06/09 12:53:13;;;;;;;5.97;4.05;;;29.70;99.90;;;;;;4779597;29;38316;-84
2023/06/09 12:55:41;;;;;;;6.90;3.88;;;29.60;99.90;;;;;;4777298;29;38415;-81
2023/06/09 12:58:09;;;;;;;7.05;4.22;;;29.80;99.90;;;;;;4771904;29;37752;-82
2023/06/09 13:00:36;;;;;;;5.20;3.80;;;29.50;99.90;;;;;;4799657;29;38983;-88